This is the latest recevied weather packets stored in our database for station/object EA1FWM-13. If no packets are shown the sender has not sent any weather packets the latest 10 day(s).
| Time | Temp. | Humidity | Pressure | Rain* | Wind** | Luminosity | Snow |
|---|---|---|---|---|---|---|---|
| 1777834358 | 15.56° C | 86% | 1015.3 hPa | - | - | - | - |
| 1777833458 | 15.56° C | 86% | 1015.3 hPa | - | - | - | - |
| 1777832558 | 15.56° C | 86% | 1015.3 hPa | - | - | - | - |
| 1777831657 | 15.56° C | 86% | 1015.3 hPa | - | - | - | - |
| 1777830757 | 15.56° C | 86% | 1015.3 hPa | - | - | - | - |
| 1777829857 | 15.56° C | 86% | 1015.3 hPa | - | - | - | - |
| 1777828957 | 15.56° C | 86% | 1015.3 hPa | - | - | - | - |
| 1777828057 | 15.56° C | 86% | 1015.3 hPa | - | - | - | - |
| 1777827157 | 15.56° C | 86% | 1015.3 hPa | - | - | - | - |
| 1777826256 | 15.56° C | 86% | 1015.3 hPa | - | - | - | - |
| 1777825436 | 15.56° C | 86% | 1015.4 hPa | - | - | - | - |
| 1777824454 | 15.56° C | 88% | 1015.4 hPa | - | - | - | - |
| 1777823553 | 15° C | 88% | 1015.4 hPa | - | - | - | - |
| 1777822653 | 13.89° C | 91% | 1015.6 hPa | - | - | - | - |
| 1777821752 | 13.89° C | 89% | 1015.6 hPa | - | - | - | - |
| 1777820851 | 13.89° C | 89% | 1015.7 hPa | - | - | - | - |
| 1777819950 | 14.44° C | 87% | 1015.6 hPa | - | - | - | - |
| 1777819049 | 13.89° C | 89% | 1015.7 hPa | - | - | - | - |
| 1777818148 | 13.33° C | 85% | 1015.7 hPa | - | - | - | - |
| 1777817247 | 15° C | 85% | 1015.8 hPa | - | - | - | - |
| 1777816347 | 14.44° C | 87% | 1015.9 hPa | - | - | - | - |
| 1777815446 | 13.89° C | 85% | 1015.7 hPa | - | - | - | - |
| 1777814545 | 16.11° C | 83% | 1015.4 hPa | - | - | - | - |
| 1777813644 | 19.44° C | 74% | 1015.5 hPa | - | - | - | - |
| 1777812743 | 18.33° C | 71% | 1015.7 hPa | - | - | - | - |
* Rain since midnight (hover to see other rain measurements)
** Current wind speed in m/s (hover to see current wind gust speed)